sensor_id;sensor_type;location;lat;lon;timestamp;P1;durP1;ratioP1;P2;durP2;ratioP2
35306;SDS011;21420;52.196;21.416;2022-08-02T00:00:15;14.93;;;8.80;;
35306;SDS011;21420;52.196;21.416;2022-08-02T00:02:42;8.85;;;8.03;;
35306;SDS011;21420;52.196;21.416;2022-08-02T00:05:11;11.77;;;8.50;;
35306;SDS011;21420;52.196;21.416;2022-08-02T00:07:39;8.88;;;8.05;;
35306;SDS011;21420;52.196;21.416;2022-08-02T00:10:06;9.10;;;8.30;;
35306;SDS011;21420;52.196;21.416;2022-08-02T00:12:35;8.65;;;7.85;;
35306;SDS011;21420;52.196;21.416;2022-08-02T00:15:04;8.35;;;7.55;;
35306;SDS011;21420;52.196;21.416;2022-08-02T00:17:33;8.98;;;8.10;;
35306;SDS011;21420;52.196;21.416;2022-08-02T00:19:59;10.53;;;9.53;;
35306;SDS011;21420;52.196;21.416;2022-08-02T00:22:26;8.85;;;8.00;;
35306;SDS011;21420;52.196;21.416;2022-08-02T00:24:52;14.00;;;8.48;;
35306;SDS011;21420;52.196;21.416;2022-08-02T00:27:18;10.23;;;9.20;;
35306;SDS011;21420;52.196;21.416;2022-08-02T00:29:45;10.23;;;8.38;;
35306;SDS011;21420;52.196;21.416;2022-08-02T00:32:11;8.33;;;7.62;;
35306;SDS011;21420;52.196;21.416;2022-08-02T00:34:37;9.08;;;7.97;;
35306;SDS011;21420;52.196;21.416;2022-08-02T00:37:03;8.35;;;7.28;;
35306;SDS011;21420;52.196;21.416;2022-08-02T00:39:29;9.08;;;7.28;;
35306;SDS011;21420;52.196;21.416;2022-08-02T00:41:55;10.25;;;7.25;;
35306;SDS011;21420;52.196;21.416;2022-08-02T00:44:22;7.83;;;7.12;;
35306;SDS011;21420;52.196;21.416;2022-08-02T00:46:48;8.53;;;7.37;;
35306;SDS011;21420;52.196;21.416;2022-08-02T00:49:14;7.83;;;7.03;;
35306;SDS011;21420;52.196;21.416;2022-08-02T00:51:41;9.25;;;8.13;;
35306;SDS011;21420;52.196;21.416;2022-08-02T00:54:07;9.18;;;7.78;;
35306;SDS011;21420;52.196;21.416;2022-08-02T00:56:33;9.20;;;8.20;;
35306;SDS011;21420;52.196;21.416;2022-08-02T00:59:00;10.65;;;8.15;;
35306;SDS011;21420;52.196;21.416;2022-08-02T01:01:28;15.65;;;8.05;;
35306;SDS011;21420;52.196;21.416;2022-08-02T01:04:10;10.58;;;8.40;;
35306;SDS011;21420;52.196;21.416;2022-08-02T01:06:40;9.95;;;8.93;;
35306;SDS011;21420;52.196;21.416;2022-08-02T01:09:07;10.10;;;9.15;;
35306;SDS011;21420;52.196;21.416;2022-08-02T01:11:34;9.30;;;8.30;;
35306;SDS011;21420;52.196;21.416;2022-08-02T01:14:04;10.13;;;8.95;;
35306;SDS011;21420;52.196;21.416;2022-08-02T01:16:35;13.93;;;9.18;;
35306;SDS011;21420;52.196;21.416;2022-08-02T01:23:22;12.18;;;9.28;;
35306;SDS011;21420;52.196;21.416;2022-08-02T01:33:54;13.43;;;9.88;;
35306;SDS011;21420;52.196;21.416;2022-08-02T01:36:23;10.90;;;9.60;;
35306;SDS011;21420;52.196;21.416;2022-08-02T01:38:55;10.03;;;8.45;;
35306;SDS011;21420;52.196;21.416;2022-08-02T01:41:24;9.50;;;8.45;;
35306;SDS011;21420;52.196;21.416;2022-08-02T01:43:54;9.18;;;7.95;;
35306;SDS011;21420;52.196;21.416;2022-08-02T01:46:23;9.35;;;8.38;;
35306;SDS011;21420;52.196;21.416;2022-08-02T01:48:52;10.13;;;8.35;;
35306;SDS011;21420;52.196;21.416;2022-08-02T01:51:21;9.30;;;8.13;;
35306;SDS011;21420;52.196;21.416;2022-08-02T01:54:09;8.93;;;8.03;;
35306;SDS011;21420;52.196;21.416;2022-08-02T01:56:39;8.80;;;7.80;;
35306;SDS011;21420;52.196;21.416;2022-08-02T01:59:08;7.53;;;6.83;;
35306;SDS011;21420;52.196;21.416;2022-08-02T02:01:38;7.97;;;6.53;;
35306;SDS011;21420;52.196;21.416;2022-08-02T02:04:07;7.60;;;5.97;;
35306;SDS011;21420;52.196;21.416;2022-08-02T02:06:38;8.85;;;7.65;;
35306;SDS011;21420;52.196;21.416;2022-08-02T02:09:04;6.92;;;6.00;;
35306;SDS011;21420;52.196;21.416;2022-08-02T02:11:31;6.87;;;6.28;;
35306;SDS011;21420;52.196;21.416;2022-08-02T02:13:59;5.83;;;5.25;;
35306;SDS011;21420;52.196;21.416;2022-08-02T02:19:41;9.23;;;6.22;;
35306;SDS011;21420;52.196;21.416;2022-08-02T02:22:10;5.70;;;5.20;;
35306;SDS011;21420;52.196;21.416;2022-08-02T02:24:37;6.33;;;5.72;;
35306;SDS011;21420;52.196;21.416;2022-08-02T02:27:03;8.20;;;5.83;;
35306;SDS011;21420;52.196;21.416;2022-08-02T02:29:33;7.03;;;6.17;;
35306;SDS011;21420;52.196;21.416;2022-08-02T02:32:00;8.40;;;7.55;;
35306;SDS011;21420;52.196;21.416;2022-08-02T02:34:31;9.28;;;7.17;;
35306;SDS011;21420;52.196;21.416;2022-08-02T02:37:03;8.35;;;7.55;;
35306;SDS011;21420;52.196;21.416;2022-08-02T02:39:32;8.50;;;7.70;;
35306;SDS011;21420;52.196;21.416;2022-08-02T02:42:01;7.90;;;7.30;;
35306;SDS011;21420;52.196;21.416;2022-08-02T02:44:32;10.38;;;7.90;;
35306;SDS011;21420;52.196;21.416;2022-08-02T02:47:01;11.78;;;8.35;;
35306;SDS011;21420;52.196;21.416;2022-08-02T02:49:28;11.78;;;9.58;;
35306;SDS011;21420;52.196;21.416;2022-08-02T02:51:57;10.98;;;9.30;;
35306;SDS011;21420;52.196;21.416;2022-08-02T02:54:24;12.07;;;9.58;;
35306;SDS011;21420;52.196;21.416;2022-08-02T02:56:52;10.63;;;9.35;;
35306;SDS011;21420;52.196;21.416;2022-08-02T02:59:19;9.75;;;7.70;;
35306;SDS011;21420;52.196;21.416;2022-08-02T03:01:45;11.65;;;8.03;;
35306;SDS011;21420;52.196;21.416;2022-08-02T03:04:12;9.83;;;8.83;;
35306;SDS011;21420;52.196;21.416;2022-08-02T03:06:40;10.28;;;7.85;;
35306;SDS011;21420;52.196;21.416;2022-08-02T03:09:06;9.13;;;7.95;;
35306;SDS011;21420;52.196;21.416;2022-08-02T03:11:34;12.85;;;8.60;;
35306;SDS011;21420;52.196;21.416;2022-08-02T03:14:01;8.68;;;7.80;;
35306;SDS011;21420;52.196;21.416;2022-08-02T03:16:30;8.53;;;7.78;;
35306;SDS011;21420;52.196;21.416;2022-08-02T03:18:56;7.75;;;7.05;;
35306;SDS011;21420;52.196;21.416;2022-08-02T03:21:26;9.33;;;7.05;;
35306;SDS011;21420;52.196;21.416;2022-08-02T03:23:52;10.50;;;7.53;;
35306;SDS011;21420;52.196;21.416;2022-08-02T03:26:18;8.85;;;6.90;;
35306;SDS011;21420;52.196;21.416;2022-08-02T03:28:45;9.38;;;8.38;;
35306;SDS011;21420;52.196;21.416;2022-08-02T03:31:11;8.95;;;6.37;;
35306;SDS011;21420;52.196;21.416;2022-08-02T03:33:38;9.25;;;7.08;;
35306;SDS011;21420;52.196;21.416;2022-08-02T03:36:13;9.88;;;7.37;;
35306;SDS011;21420;52.196;21.416;2022-08-02T03:38:38;11.08;;;7.87;;
35306;SDS011;21420;52.196;21.416;2022-08-02T03:41:06;8.83;;;7.45;;
35306;SDS011;21420;52.196;21.416;2022-08-02T03:46:03;11.48;;;9.48;;
35306;SDS011;21420;52.196;21.416;2022-08-02T03:48:32;11.43;;;9.80;;
35306;SDS011;21420;52.196;21.416;2022-08-02T03:51:01;12.37;;;9.00;;
35306;SDS011;21420;52.196;21.416;2022-08-02T03:53:29;15.85;;;10.08;;
35306;SDS011;21420;52.196;21.416;2022-08-02T03:55:57;13.62;;;9.45;;
35306;SDS011;21420;52.196;21.416;2022-08-02T03:58:24;11.05;;;9.48;;
35306;SDS011;21420;52.196;21.416;2022-08-02T04:00:51;11.18;;;8.98;;
35306;SDS011;21420;52.196;21.416;2022-08-02T04:03:20;14.25;;;10.40;;
35306;SDS011;21420;52.196;21.416;2022-08-02T04:05:46;16.12;;;10.58;;
35306;SDS011;21420;52.196;21.416;2022-08-02T04:08:13;12.50;;;11.20;;
35306;SDS011;21420;52.196;21.416;2022-08-02T04:10:40;14.10;;;11.75;;
35306;SDS011;21420;52.196;21.416;2022-08-02T04:13:27;14.40;;;12.47;;
35306;SDS011;21420;52.196;21.416;2022-08-02T04:16:18;13.40;;;11.97;;
35306;SDS011;21420;52.196;21.416;2022-08-02T04:18:40;12.43;;;10.72;;
35306;SDS011;21420;52.196;21.416;2022-08-02T04:21:11;13.38;;;10.78;;
35306;SDS011;21420;52.196;21.416;2022-08-02T04:23:39;14.55;;;11.05;;
35306;SDS011;21420;52.196;21.416;2022-08-02T04:26:09;14.78;;;11.65;;
35306;SDS011;21420;52.196;21.416;2022-08-02T04:28:36;12.33;;;10.60;;
35306;SDS011;21420;52.196;21.416;2022-08-02T04:31:03;12.65;;;10.38;;
35306;SDS011;21420;52.196;21.416;2022-08-02T04:33:31;12.60;;;10.32;;
35306;SDS011;21420;52.196;21.416;2022-08-02T04:35:59;11.12;;;10.08;;
35306;SDS011;21420;52.196;21.416;2022-08-02T04:38:26;10.88;;;9.83;;
35306;SDS011;21420;52.196;21.416;2022-08-02T04:40:53;13.20;;;10.23;;
35306;SDS011;21420;52.196;21.416;2022-08-02T04:43:21;10.50;;;9.38;;
35306;SDS011;21420;52.196;21.416;2022-08-02T04:45:48;10.23;;;9.15;;
35306;SDS011;21420;52.196;21.416;2022-08-02T04:48:17;12.15;;;10.85;;
35306;SDS011;21420;52.196;21.416;2022-08-02T04:50:46;9.90;;;9.00;;
35306;SDS011;21420;52.196;21.416;2022-08-02T04:53:13;9.88;;;8.88;;
35306;SDS011;21420;52.196;21.416;2022-08-02T04:55:39;9.33;;;8.43;;
35306;SDS011;21420;52.196;21.416;2022-08-02T04:58:06;9.20;;;8.18;;
35306;SDS011;21420;52.196;21.416;2022-08-02T05:00:32;10.58;;;8.33;;
35306;SDS011;21420;52.196;21.416;2022-08-02T05:02:59;8.65;;;7.67;;
35306;SDS011;21420;52.196;21.416;2022-08-02T05:05:26;11.18;;;7.28;;
35306;SDS011;21420;52.196;21.416;2022-08-02T05:07:52;10.08;;;7.30;;
35306;SDS011;21420;52.196;21.416;2022-08-02T05:10:19;11.25;;;7.72;;
35306;SDS011;21420;52.196;21.416;2022-08-02T05:12:46;13.75;;;8.28;;
35306;SDS011;21420;52.196;21.416;2022-08-02T05:15:13;9.15;;;6.42;;
35306;SDS011;21420;52.196;21.416;2022-08-02T05:17:43;6.67;;;6.08;;
35306;SDS011;21420;52.196;21.416;2022-08-02T05:20:11;8.88;;;5.50;;
35306;SDS011;21420;52.196;21.416;2022-08-02T05:22:38;7.30;;;5.55;;
35306;SDS011;21420;52.196;21.416;2022-08-02T05:25:05;5.97;;;5.08;;
35306;SDS011;21420;52.196;21.416;2022-08-02T05:27:33;4.60;;;4.30;;
35306;SDS011;21420;52.196;21.416;2022-08-02T05:29:59;4.92;;;3.98;;
35306;SDS011;21420;52.196;21.416;2022-08-02T05:32:28;5.70;;;4.10;;
35306;SDS011;21420;52.196;21.416;2022-08-02T05:34:55;5.40;;;3.62;;
35306;SDS011;21420;52.196;21.416;2022-08-02T05:37:21;5.10;;;3.90;;
35306;SDS011;21420;52.196;21.416;2022-08-02T05:39:47;4.53;;;3.92;;
35306;SDS011;21420;52.196;21.416;2022-08-02T05:42:13;5.42;;;3.83;;
35306;SDS011;21420;52.196;21.416;2022-08-02T05:44:39;6.30;;;3.87;;
35306;SDS011;21420;52.196;21.416;2022-08-02T05:47:06;6.17;;;4.03;;
35306;SDS011;21420;52.196;21.416;2022-08-02T05:49:32;5.92;;;3.35;;
35306;SDS011;21420;52.196;21.416;2022-08-02T05:52:14;6.47;;;3.25;;
35306;SDS011;21420;52.196;21.416;2022-08-02T06:00:16;2.62;;;2.25;;
35306;SDS011;21420;52.196;21.416;2022-08-02T06:05:52;5.55;;;2.30;;
35306;SDS011;21420;52.196;21.416;2022-08-02T06:08:31;4.78;;;2.60;;
35306;SDS011;21420;52.196;21.416;2022-08-02T06:11:01;4.12;;;2.40;;
35306;SDS011;21420;52.196;21.416;2022-08-02T06:13:30;5.70;;;2.72;;
35306;SDS011;21420;52.196;21.416;2022-08-02T06:15:58;2.87;;;1.87;;
35306;SDS011;21420;52.196;21.416;2022-08-02T06:18:26;2.97;;;2.30;;
35306;SDS011;21420;52.196;21.416;2022-08-02T06:20:54;4.90;;;2.02;;
35306;SDS011;21420;52.196;21.416;2022-08-02T06:23:23;6.45;;;1.75;;
35306;SDS011;21420;52.196;21.416;2022-08-02T06:25:52;3.52;;;1.72;;
35306;SDS011;21420;52.196;21.416;2022-08-02T06:28:18;4.85;;;1.60;;
35306;SDS011;21420;52.196;21.416;2022-08-02T06:30:45;2.87;;;1.60;;
35306;SDS011;21420;52.196;21.416;2022-08-02T06:33:12;4.70;;;1.60;;
35306;SDS011;21420;52.196;21.416;2022-08-02T06:35:45;5.70;;;2.02;;
35306;SDS011;21420;52.196;21.416;2022-08-02T06:38:23;2.47;;;1.50;;
35306;SDS011;21420;52.196;21.416;2022-08-02T06:43:58;3.12;;;1.32;;
35306;SDS011;21420;52.196;21.416;2022-08-02T06:46:25;1.20;;;1.10;;
35306;SDS011;21420;52.196;21.416;2022-08-02T06:48:52;3.45;;;1.65;;
35306;SDS011;21420;52.196;21.416;2022-08-02T06:51:19;6.22;;;1.50;;
35306;SDS011;21420;52.196;21.416;2022-08-02T06:53:46;2.70;;;1.40;;
35306;SDS011;21420;52.196;21.416;2022-08-02T06:56:13;2.20;;;1.45;;
35306;SDS011;21420;52.196;21.416;2022-08-02T06:58:40;2.98;;;1.40;;
35306;SDS011;21420;52.196;21.416;2022-08-02T07:01:07;1.95;;;1.20;;
35306;SDS011;21420;52.196;21.416;2022-08-02T07:03:34;1.67;;;1.20;;
35306;SDS011;21420;52.196;21.416;2022-08-02T07:06:03;3.98;;;0.88;;
35306;SDS011;21420;52.196;21.416;2022-08-02T07:08:33;1.20;;;0.90;;
35306;SDS011;21420;52.196;21.416;2022-08-02T07:11:02;2.98;;;1.07;;
35306;SDS011;21420;52.196;21.416;2022-08-02T07:13:33;2.17;;;1.02;;
35306;SDS011;21420;52.196;21.416;2022-08-02T07:16:00;5.25;;;1.17;;
35306;SDS011;21420;52.196;21.416;2022-08-02T07:18:28;1.65;;;1.10;;
35306;SDS011;21420;52.196;21.416;2022-08-02T07:20:55;1.15;;;1.00;;
35306;SDS011;21420;52.196;21.416;2022-08-02T07:23:21;2.12;;;0.98;;
35306;SDS011;21420;52.196;21.416;2022-08-02T07:25:48;4.92;;;0.80;;
35306;SDS011;21420;52.196;21.416;2022-08-02T07:28:14;1.25;;;1.07;;
35306;SDS011;21420;52.196;21.416;2022-08-02T07:30:41;1.62;;;0.90;;
35306;SDS011;21420;52.196;21.416;2022-08-02T07:33:08;0.80;;;0.80;;
35306;SDS011;21420;52.196;21.416;2022-08-02T07:35:35;1.32;;;0.80;;
35306;SDS011;21420;52.196;21.416;2022-08-02T07:38:01;2.35;;;1.20;;
35306;SDS011;21420;52.196;21.416;2022-08-02T07:40:28;1.10;;;0.80;;
35306;SDS011;21420;52.196;21.416;2022-08-02T07:42:54;2.75;;;1.02;;
35306;SDS011;21420;52.196;21.416;2022-08-02T07:45:23;1.60;;;0.90;;
35306;SDS011;21420;52.196;21.416;2022-08-02T07:47:50;1.57;;;1.00;;
35306;SDS011;21420;52.196;21.416;2022-08-02T07:50:18;1.35;;;0.88;;
35306;SDS011;21420;52.196;21.416;2022-08-02T07:52:46;1.85;;;0.53;;
35306;SDS011;21420;52.196;21.416;2022-08-02T07:55:14;3.60;;;1.00;;
35306;SDS011;21420;52.196;21.416;2022-08-02T07:57:42;1.22;;;0.93;;
35306;SDS011;21420;52.196;21.416;2022-08-02T08:00:10;1.52;;;0.72;;
35306;SDS011;21420;52.196;21.416;2022-08-02T08:02:38;0.90;;;0.90;;
35306;SDS011;21420;52.196;21.416;2022-08-02T08:05:05;3.67;;;1.20;;
35306;SDS011;21420;52.196;21.416;2022-08-02T08:07:33;0.95;;;0.68;;
35306;SDS011;21420;52.196;21.416;2022-08-02T08:09:59;1.17;;;0.90;;
35306;SDS011;21420;52.196;21.416;2022-08-02T08:12:26;1.62;;;0.98;;
35306;SDS011;21420;52.196;21.416;2022-08-02T08:14:53;3.40;;;0.98;;
35306;SDS011;21420;52.196;21.416;2022-08-02T08:17:19;2.58;;;1.00;;
35306;SDS011;21420;52.196;21.416;2022-08-02T08:19:46;1.52;;;0.98;;
35306;SDS011;21420;52.196;21.416;2022-08-02T08:22:15;2.17;;;0.85;;
35306;SDS011;21420;52.196;21.416;2022-08-02T08:24:41;1.65;;;0.90;;
35306;SDS011;21420;52.196;21.416;2022-08-02T08:27:08;2.80;;;0.95;;
35306;SDS011;21420;52.196;21.416;2022-08-02T08:29:36;1.10;;;1.00;;
35306;SDS011;21420;52.196;21.416;2022-08-02T08:32:02;1.72;;;1.20;;
35306;SDS011;21420;52.196;21.416;2022-08-02T08:34:29;2.58;;;1.20;;
35306;SDS011;21420;52.196;21.416;2022-08-02T08:36:55;1.20;;;1.10;;
35306;SDS011;21420;52.196;21.416;2022-08-02T08:39:21;3.95;;;1.30;;
35306;SDS011;21420;52.196;21.416;2022-08-02T08:41:48;3.02;;;1.07;;
35306;SDS011;21420;52.196;21.416;2022-08-02T08:44:14;2.17;;;1.10;;
35306;SDS011;21420;52.196;21.416;2022-08-02T08:46:43;2.15;;;1.10;;
35306;SDS011;21420;52.196;21.416;2022-08-02T08:49:19;4.55;;;1.10;;
35306;SDS011;21420;52.196;21.416;2022-08-02T08:52:00;1.30;;;1.05;;
35306;SDS011;21420;52.196;21.416;2022-08-02T08:54:29;1.27;;;0.90;;
35306;SDS011;21420;52.196;21.416;2022-08-02T08:56:58;1.55;;;1.07;;
35306;SDS011;21420;52.196;21.416;2022-08-02T08:59:27;1.90;;;1.15;;
35306;SDS011;21420;52.196;21.416;2022-08-02T09:01:54;1.37;;;1.00;;
35306;SDS011;21420;52.196;21.416;2022-08-02T09:04:22;2.58;;;0.90;;
35306;SDS011;21420;52.196;21.416;2022-08-02T09:06:48;2.05;;;0.88;;
35306;SDS011;21420;52.196;21.416;2022-08-02T09:09:15;1.60;;;1.00;;
35306;SDS011;21420;52.196;21.416;2022-08-02T09:11:41;2.95;;;1.10;;
35306;SDS011;21420;52.196;21.416;2022-08-02T09:14:07;3.00;;;1.20;;
35306;SDS011;21420;52.196;21.416;2022-08-02T09:16:38;0.95;;;0.90;;
35306;SDS011;21420;52.196;21.416;2022-08-02T09:21:51;2.10;;;1.15;;
35306;SDS011;21420;52.196;21.416;2022-08-02T09:24:27;1.45;;;1.30;;
35306;SDS011;21420;52.196;21.416;2022-08-02T09:26:53;2.02;;;1.02;;
35306;SDS011;21420;52.196;21.416;2022-08-02T09:29:24;1.45;;;1.10;;
35306;SDS011;21420;52.196;21.416;2022-08-02T09:31:51;2.08;;;0.98;;
35306;SDS011;21420;52.196;21.416;2022-08-02T09:34:22;1.30;;;1.10;;
35306;SDS011;21420;52.196;21.416;2022-08-02T09:36:54;3.75;;;1.00;;
35306;SDS011;21420;52.196;21.416;2022-08-02T09:39:20;2.40;;;1.05;;
35306;SDS011;21420;52.196;21.416;2022-08-02T09:41:48;4.03;;;1.43;;
35306;SDS011;21420;52.196;21.416;2022-08-02T09:44:14;2.55;;;1.20;;
35306;SDS011;21420;52.196;21.416;2022-08-02T09:46:42;0.95;;;0.85;;
35306;SDS011;21420;52.196;21.416;2022-08-02T09:49:11;1.50;;;0.93;;
35306;SDS011;21420;52.196;21.416;2022-08-02T09:54:23;1.37;;;1.10;;
35306;SDS011;21420;52.196;21.416;2022-08-02T09:56:57;1.57;;;1.20;;
35306;SDS011;21420;52.196;21.416;2022-08-02T09:59:25;2.70;;;1.20;;
35306;SDS011;21420;52.196;21.416;2022-08-02T10:01:54;1.67;;;1.20;;
35306;SDS011;21420;52.196;21.416;2022-08-02T10:04:23;1.52;;;1.05;;
35306;SDS011;21420;52.196;21.416;2022-08-02T10:06:54;2.55;;;1.10;;
35306;SDS011;21420;52.196;21.416;2022-08-02T10:09:20;3.83;;;1.30;;
35306;SDS011;21420;52.196;21.416;2022-08-02T10:11:47;1.10;;;1.00;;
35306;SDS011;21420;52.196;21.416;2022-08-02T10:14:14;2.77;;;1.20;;
35306;SDS011;21420;52.196;21.416;2022-08-02T10:16:43;2.72;;;1.10;;
35306;SDS011;21420;52.196;21.416;2022-08-02T10:19:12;4.17;;;0.75;;
35306;SDS011;21420;52.196;21.416;2022-08-02T10:21:59;2.60;;;1.15;;
35306;SDS011;21420;52.196;21.416;2022-08-02T10:24:38;1.62;;;1.02;;
35306;SDS011;21420;52.196;21.416;2022-08-02T10:27:16;1.67;;;0.80;;
35306;SDS011;21420;52.196;21.416;2022-08-02T10:29:40;1.85;;;1.10;;
35306;SDS011;21420;52.196;21.416;2022-08-02T10:32:12;2.08;;;1.20;;
35306;SDS011;21420;52.196;21.416;2022-08-02T10:34:44;2.72;;;1.27;;
35306;SDS011;21420;52.196;21.416;2022-08-02T10:37:27;1.12;;;1.10;;
35306;SDS011;21420;52.196;21.416;2022-08-02T10:39:56;1.40;;;1.22;;
35306;SDS011;21420;52.196;21.416;2022-08-02T10:42:42;2.25;;;1.32;;
35306;SDS011;21420;52.196;21.416;2022-08-02T10:45:13;1.82;;;1.35;;
35306;SDS011;21420;52.196;21.416;2022-08-02T10:48:15;1.92;;;1.30;;
35306;SDS011;21420;52.196;21.416;2022-08-02T10:56:00;4.12;;;1.40;;
35306;SDS011;21420;52.196;21.416;2022-08-02T10:58:26;2.60;;;1.42;;
35306;SDS011;21420;52.196;21.416;2022-08-02T11:00:57;1.07;;;1.07;;
35306;SDS011;21420;52.196;21.416;2022-08-02T11:03:44;2.20;;;1.40;;
35306;SDS011;21420;52.196;21.416;2022-08-02T11:06:11;1.55;;;1.10;;
35306;SDS011;21420;52.196;21.416;2022-08-02T11:08:39;2.47;;;1.22;;
35306;SDS011;21420;52.196;21.416;2022-08-02T11:19:26;2.98;;;1.87;;
35306;SDS011;21420;52.196;21.416;2022-08-02T11:21:59;2.60;;;1.50;;
35306;SDS011;21420;52.196;21.416;2022-08-02T11:24:29;1.77;;;1.60;;
35306;SDS011;21420;52.196;21.416;2022-08-02T11:26:59;1.55;;;1.20;;
35306;SDS011;21420;52.196;21.416;2022-08-02T11:29:36;2.10;;;1.90;;
35306;SDS011;21420;52.196;21.416;2022-08-02T11:32:06;1.87;;;1.30;;
35306;SDS011;21420;52.196;21.416;2022-08-02T11:34:34;1.42;;;1.30;;
35306;SDS011;21420;52.196;21.416;2022-08-02T11:37:00;2.37;;;1.35;;
35306;SDS011;21420;52.196;21.416;2022-08-02T11:39:26;3.05;;;1.50;;
35306;SDS011;21420;52.196;21.416;2022-08-02T11:41:58;1.67;;;1.40;;
35306;SDS011;21420;52.196;21.416;2022-08-02T11:44:25;1.32;;;1.22;;
35306;SDS011;21420;52.196;21.416;2022-08-02T11:46:57;2.50;;;1.50;;
35306;SDS011;21420;52.196;21.416;2022-08-02T11:49:27;5.45;;;1.70;;
35306;SDS011;21420;52.196;21.416;2022-08-02T11:52:04;4.58;;;1.62;;
35306;SDS011;21420;52.196;21.416;2022-08-02T11:54:31;3.25;;;1.72;;
35306;SDS011;21420;52.196;21.416;2022-08-02T11:57:14;1.67;;;1.55;;
35306;SDS011;21420;52.196;21.416;2022-08-02T11:59:46;2.15;;;1.40;;
35306;SDS011;21420;52.196;21.416;2022-08-02T12:02:17;1.62;;;1.30;;
35306;SDS011;21420;52.196;21.416;2022-08-02T12:04:55;4.67;;;2.10;;
35306;SDS011;21420;52.196;21.416;2022-08-02T12:07:28;4.08;;;1.70;;
35306;SDS011;21420;52.196;21.416;2022-08-02T12:10:11;1.45;;;1.35;;
35306;SDS011;21420;52.196;21.416;2022-08-02T12:12:48;2.33;;;1.62;;
35306;SDS011;21420;52.196;21.416;2022-08-02T12:15:30;2.55;;;1.22;;
35306;SDS011;21420;52.196;21.416;2022-08-02T12:18:08;3.08;;;1.60;;
35306;SDS011;21420;52.196;21.416;2022-08-02T12:20:59;2.25;;;1.45;;
35306;SDS011;21420;52.196;21.416;2022-08-02T12:23:27;2.10;;;1.40;;
35306;SDS011;21420;52.196;21.416;2022-08-02T12:26:03;6.00;;;2.02;;
35306;SDS011;21420;52.196;21.416;2022-08-02T12:28:32;2.12;;;1.37;;
35306;SDS011;21420;52.196;21.416;2022-08-02T12:31:03;8.35;;;2.65;;
35306;SDS011;21420;52.196;21.416;2022-08-02T12:33:51;11.20;;;4.58;;
35306;SDS011;21420;52.196;21.416;2022-08-02T12:36:19;13.08;;;5.22;;
35306;SDS011;21420;52.196;21.416;2022-08-02T12:38:49;13.70;;;5.12;;
35306;SDS011;21420;52.196;21.416;2022-08-02T12:41:20;19.48;;;6.65;;
35306;SDS011;21420;52.196;21.416;2022-08-02T12:43:48;6.83;;;3.58;;
35306;SDS011;21420;52.196;21.416;2022-08-02T12:46:16;12.05;;;4.20;;
35306;SDS011;21420;52.196;21.416;2022-08-02T12:48:46;10.53;;;4.30;;
35306;SDS011;21420;52.196;21.416;2022-08-02T12:51:20;6.90;;;2.35;;
35306;SDS011;21420;52.196;21.416;2022-08-02T12:54:22;9.90;;;3.62;;
35306;SDS011;21420;52.196;21.416;2022-08-02T12:56:40;6.40;;;2.33;;
35306;SDS011;21420;52.196;21.416;2022-08-02T12:59:08;11.28;;;3.77;;
35306;SDS011;21420;52.196;21.416;2022-08-02T13:01:35;4.20;;;1.98;;
35306;SDS011;21420;52.196;21.416;2022-08-02T13:04:01;4.75;;;2.27;;
35306;SDS011;21420;52.196;21.416;2022-08-02T13:06:29;3.30;;;2.17;;
35306;SDS011;21420;52.196;21.416;2022-08-02T13:08:55;3.75;;;2.42;;
35306;SDS011;21420;52.196;21.416;2022-08-02T13:11:26;8.60;;;3.58;;
35306;SDS011;21420;52.196;21.416;2022-08-02T13:13:53;2.10;;;1.90;;
35306;SDS011;21420;52.196;21.416;2022-08-02T13:16:19;5.15;;;2.52;;
35306;SDS011;21420;52.196;21.416;2022-08-02T13:18:46;3.15;;;2.08;;
35306;SDS011;21420;52.196;21.416;2022-08-02T13:21:12;4.97;;;3.20;;
35306;SDS011;21420;52.196;21.416;2022-08-02T13:23:39;8.23;;;3.47;;
35306;SDS011;21420;52.196;21.416;2022-08-02T13:26:05;5.12;;;2.20;;
35306;SDS011;21420;52.196;21.416;2022-08-02T13:28:32;5.20;;;3.27;;
35306;SDS011;21420;52.196;21.416;2022-08-02T13:30:59;4.40;;;2.00;;
35306;SDS011;21420;52.196;21.416;2022-08-02T13:33:26;4.33;;;2.25;;
35306;SDS011;21420;52.196;21.416;2022-08-02T13:35:52;10.82;;;3.08;;
35306;SDS011;21420;52.196;21.416;2022-08-02T13:38:19;6.78;;;2.60;;
35306;SDS011;21420;52.196;21.416;2022-08-02T13:40:45;3.40;;;2.20;;
35306;SDS011;21420;52.196;21.416;2022-08-02T13:43:29;5.78;;;2.22;;
35306;SDS011;21420;52.196;21.416;2022-08-02T13:45:55;3.42;;;2.42;;
35306;SDS011;21420;52.196;21.416;2022-08-02T13:48:22;2.50;;;2.25;;
35306;SDS011;21420;52.196;21.416;2022-08-02T13:50:48;3.52;;;2.22;;
35306;SDS011;21420;52.196;21.416;2022-08-02T13:53:14;3.70;;;2.62;;
35306;SDS011;21420;52.196;21.416;2022-08-02T13:55:40;3.00;;;2.27;;
35306;SDS011;21420;52.196;21.416;2022-08-02T13:58:06;3.45;;;2.30;;
35306;SDS011;21420;52.196;21.416;2022-08-02T14:00:34;4.28;;;2.12;;
35306;SDS011;21420;52.196;21.416;2022-08-02T14:03:00;3.67;;;2.60;;
35306;SDS011;21420;52.196;21.416;2022-08-02T14:05:26;3.27;;;2.00;;
35306;SDS011;21420;52.196;21.416;2022-08-02T14:07:56;3.27;;;2.12;;
35306;SDS011;21420;52.196;21.416;2022-08-02T14:10:23;6.37;;;2.45;;
35306;SDS011;21420;52.196;21.416;2022-08-02T14:12:51;4.90;;;2.50;;
35306;SDS011;21420;52.196;21.416;2022-08-02T14:15:18;4.45;;;2.12;;
35306;SDS011;21420;52.196;21.416;2022-08-02T14:17:44;3.80;;;2.08;;
35306;SDS011;21420;52.196;21.416;2022-08-02T14:20:11;4.05;;;2.25;;
35306;SDS011;21420;52.196;21.416;2022-08-02T14:22:38;2.30;;;1.90;;
35306;SDS011;21420;52.196;21.416;2022-08-02T14:25:05;2.22;;;2.12;;
35306;SDS011;21420;52.196;21.416;2022-08-02T14:27:32;5.17;;;2.30;;
35306;SDS011;21420;52.196;21.416;2022-08-02T14:29:59;3.47;;;2.02;;
35306;SDS011;21420;52.196;21.416;2022-08-02T14:32:25;2.27;;;2.00;;
35306;SDS011;21420;52.196;21.416;2022-08-02T14:34:51;3.15;;;2.08;;
35306;SDS011;21420;52.196;21.416;2022-08-02T14:37:18;6.20;;;2.35;;
35306;SDS011;21420;52.196;21.416;2022-08-02T14:39:44;2.40;;;2.10;;
35306;SDS011;21420;52.196;21.416;2022-08-02T14:42:11;5.95;;;2.15;;
35306;SDS011;21420;52.196;21.416;2022-08-02T14:44:37;4.20;;;2.58;;
35306;SDS011;21420;52.196;21.416;2022-08-02T14:47:04;7.97;;;2.83;;
35306;SDS011;21420;52.196;21.416;2022-08-02T14:49:30;2.70;;;2.40;;
35306;SDS011;21420;52.196;21.416;2022-08-02T14:51:56;3.58;;;2.30;;
35306;SDS011;21420;52.196;21.416;2022-08-02T14:54:24;3.52;;;2.08;;
35306;SDS011;21420;52.196;21.416;2022-08-02T14:56:53;4.55;;;2.30;;
35306;SDS011;21420;52.196;21.416;2022-08-02T14:59:20;9.10;;;2.55;;
35306;SDS011;21420;52.196;21.416;2022-08-02T15:01:47;4.30;;;1.92;;
35306;SDS011;21420;52.196;21.416;2022-08-02T15:04:13;4.45;;;2.70;;
35306;SDS011;21420;52.196;21.416;2022-08-02T15:06:40;2.65;;;2.45;;
35306;SDS011;21420;52.196;21.416;2022-08-02T15:09:07;5.08;;;2.10;;
35306;SDS011;21420;52.196;21.416;2022-08-02T15:11:33;5.28;;;2.30;;
35306;SDS011;21420;52.196;21.416;2022-08-02T15:14:01;2.70;;;2.17;;
35306;SDS011;21420;52.196;21.416;2022-08-02T15:16:28;3.85;;;2.20;;
35306;SDS011;21420;52.196;21.416;2022-08-02T15:19:07;3.80;;;2.47;;
35306;SDS011;21420;52.196;21.416;2022-08-02T15:21:31;5.28;;;2.30;;
35306;SDS011;21420;52.196;21.416;2022-08-02T15:23:58;5.60;;;4.58;;
35306;SDS011;21420;52.196;21.416;2022-08-02T15:26:24;5.60;;;2.80;;
35306;SDS011;21420;52.196;21.416;2022-08-02T15:28:50;4.78;;;2.33;;